Aeroporto :
LOGIN :

Iscrizione | Disclaimer

   EN    FR    IT 

 










Sommario :    VFR   VFR Marginale   IFR   IFR Intensivo   IFR Molto Intensivo
Visibilità : 
Base nubi : 
>= 8 km
>= 3000ft
5 / 8 km
1000 / 3000 ft
1500m / 5 km
500 / 1000 ft
800 / 1500m
200 / 500 ft
< 800m
< 200 ft
Simboli :   Temporali  Nebbia  Neve Forte  Precipitazioni Forti  Vento > 20 kt
SIGMETs :   Varie  Temporali  Ghiacco  Turbolenza  Onda orograficha  Ceneri Vulcaniche






- Altitudine del aeroporto : 291 ft
- Codice IATA : ORY


LFPO - Paris-Orly

ULTIMO METAR :
  • 222300Z 11009KT 9999 -RA BKN046 09/06 Q0991 TEMPO 12015G25KT

METARs OBSOLETI :
  • 222230Z 11009KT 9999 -RA NSC 10/06 Q0991 TEMPO 12015G25KT
  • 222200Z 11010KT 9999 -RA NSC 10/06 Q0991 TEMPO 12015G25KT
  • 222130Z 10010KT CAVOK 10/06 Q0991 TEMPO 12015G25KT
  • 222100Z 11012KT 060V130 9999 -RA NSC 10/07 Q0992 TEMPO 15015G25KT
  • 222030Z 12013KT 9999 -RA NSC 11/06 Q0992 TEMPO 15015G25KT

TAF AMD TAF LFPO
Valido dal 22 a 21 ore il 24 a 00 ore UTC


222131Z 2221/2324 12012KT CAVOK
TEMPO 2221/2224 12015G25KT
TEMPO 2305/2312 BKN012
BECMG 2321/2324 VRB02KT 4000 BR BKN006
ATIS : +33 1 49 75 65 80



MetMap, La meteo Aeronautica in un colpo d'occhio ! - Copyright ORBIFLY Dicembre 2007 - Disclaimer

ORBIFLY MET'MAP TEAM :

Programmazione e sviluppo : Alexandra Zaïnal
Concezione e sviluppo : Baudouin d'Aumeries
Co-Programmazione e sviluppo : Marc-Olivier Méhu
Supporto tecnico e logistico : Manuel Goepfert
Aiuto per la traduzione : Arnaldo La Scala

Contatto : metmap@orbifly.com




FONTI E CREDITI :

   NOAA